createdAt,value
2019-06-26T00:01:37.190Z,57.55
2019-06-26T00:06:40.850Z,56.98
2019-06-26T00:11:44.555Z,54.60
2019-06-26T00:16:50.221Z,55.35
2019-06-26T00:22:06.845Z,54.77
2019-06-26T00:27:11.457Z,56.92
2019-06-26T00:32:16.601Z,54.85
2019-06-26T00:37:24.908Z,54.70
2019-06-26T00:42:28.660Z,51.55
2019-06-26T00:47:32.700Z,50.70
2019-06-26T00:52:36.403Z,47.48
2019-06-26T00:57:58.352Z,47.88
2019-06-26T01:03:02.086Z,45.55
2019-06-26T01:08:05.768Z,45.78
2019-06-26T01:13:15.108Z,45.25
2019-06-26T01:18:18.819Z,42.95
2019-06-26T01:23:25.139Z,42.23
2019-06-26T01:28:28.784Z,39.75
2019-06-26T01:33:33.462Z,39.78
2019-06-26T01:38:38.086Z,39.00
2019-06-26T01:43:42.881Z,39.67
2019-06-26T01:48:46.647Z,39.88
2019-06-26T01:54:00.729Z,37.53
2019-06-26T01:59:12.493Z,36.83
2019-06-26T02:04:16.102Z,40.03
2019-06-26T02:09:19.874Z,42.00
2019-06-26T02:14:31.679Z,43.10
2019-06-26T02:19:37.397Z,44.27
2019-06-26T02:24:43.200Z,47.67
2019-06-26T02:29:55.476Z,50.28
2019-06-26T02:35:09.655Z,48.35
2019-06-26T02:40:14.688Z,53.42
2019-06-26T02:45:18.346Z,52.60
2019-06-26T02:50:24.541Z,55.65
2019-06-26T02:55:28.292Z,53.70
2019-06-26T03:00:32.018Z,54.85
2019-06-26T03:05:39.737Z,56.28
2019-06-26T03:10:46.479Z,53.08
2019-06-26T03:15:53.166Z,56.15
2019-06-26T03:20:57.912Z,54.05
2019-06-26T03:26:01.661Z,54.50
2019-06-26T03:31:05.416Z,50.88
2019-06-26T03:36:09.055Z,54.27
2019-06-26T03:41:20.915Z,48.48
2019-06-26T03:46:25.539Z,52.48
2019-06-26T03:51:31.251Z,52.27
2019-06-26T03:56:35.002Z,53.08
2019-06-26T04:01:38.679Z,50.63
2019-06-26T04:06:42.368Z,51.70
2019-06-26T04:11:46.066Z,49.35
2019-06-26T04:16:56.474Z,50.78
2019-06-26T04:22:00.143Z,50.28
2019-06-26T04:27:04.014Z,54.05
2019-06-26T04:32:07.770Z,55.55
2019-06-26T04:37:13.389Z,56.75
2019-06-26T04:42:16.966Z,56.23
2019-06-26T04:47:22.623Z,54.40
2019-06-26T04:52:27.250Z,53.87
2019-06-26T04:57:31.002Z,58.40
2019-06-26T05:02:43.570Z,56.90
2019-06-26T05:07:47.206Z,59.03
2019-06-26T05:12:51.111Z,60.60
2019-06-26T05:17:54.836Z,61.28
2019-06-26T05:23:05.467Z,60.73
2019-06-26T05:28:09.248Z,59.58
2019-06-26T05:33:12.756Z,60.28
2019-06-26T05:38:16.251Z,58.20
2019-06-26T05:43:19.979Z,53.45
2019-06-26T05:48:23.538Z,52.88
2019-06-26T05:53:27.104Z,46.85
2019-06-26T05:58:30.736Z,51.50
2019-06-26T06:03:36.018Z,51.00
2019-06-26T06:08:41.201Z,50.88
2019-06-26T06:13:46.324Z,49.15
2019-06-26T06:18:49.820Z,49.30
2019-06-26T06:23:53.377Z,49.25
2019-06-26T06:28:56.890Z,47.65
2019-06-26T06:34:00.619Z,46.92
2019-06-26T06:39:05.977Z,45.60
2019-06-26T06:44:09.503Z,46.68
2019-06-26T06:49:13.298Z,44.13
2019-06-26T06:54:16.818Z,44.20
2019-06-26T06:59:22.186Z,41.50
2019-06-26T07:04:25.706Z,40.38
2019-06-26T07:09:29.215Z,40.92
2019-06-26T07:14:32.755Z,38.88
2019-06-26T07:19:36.337Z,36.70
2019-06-26T07:24:39.857Z,37.35
2019-06-26T07:29:43.404Z,36.77
2019-06-26T07:34:46.930Z,34.88
2019-06-26T07:39:50.441Z,34.67
2019-06-26T07:44:54.057Z,33.60
2019-06-26T07:49:59.338Z,30.70
2019-06-26T07:55:02.934Z,30.17
2019-06-26T08:00:07.325Z,30.82
2019-06-26T08:05:11.925Z,29.00
2019-06-26T08:10:15.936Z,27.75
2019-06-26T08:15:19.925Z,25.50
2019-06-26T08:20:23.455Z,25.32
2019-06-26T08:25:27.130Z,22.62
2019-06-26T08:30:30.749Z,22.70
2019-06-26T08:35:34.362Z,24.72
2019-06-26T08:40:52.883Z,25.82
2019-06-26T08:46:17.853Z,23.35
2019-06-26T08:51:25.102Z,21.60
2019-06-26T08:56:28.666Z,25.23
2019-06-26T09:01:32.255Z,27.35
2019-06-26T09:06:35.873Z,28.30
2019-06-26T09:11:40.320Z,26.85
2019-06-26T09:16:45.506Z,23.52
2019-06-26T09:22:00.848Z,23.65
2019-06-26T09:27:04.849Z,24.98
2019-06-26T09:32:08.543Z,27.40
2019-06-26T09:37:12.360Z,26.33
2019-06-26T09:42:19.386Z,25.55
2019-06-26T09:47:21.256Z,26.90
2019-06-26T09:52:25.815Z,28.80
2019-06-26T09:57:46.653Z,26.33
2019-06-26T10:02:56.236Z,26.15
2019-06-26T10:07:59.865Z,26.55
2019-06-26T10:13:03.617Z,27.80
2019-06-26T10:18:07.385Z,28.65
2019-06-26T10:23:13.030Z,27.87
2019-06-26T10:28:16.694Z,27.35
2019-06-26T10:33:26.201Z,29.15
2019-06-26T10:38:29.812Z,34.92
2019-06-26T10:43:35.237Z,32.73
2019-06-26T10:48:38.860Z,32.83
2019-06-26T10:53:42.481Z,36.90
2019-06-26T10:58:47.684Z,38.35
2019-06-26T11:03:52.954Z,44.73
2019-06-26T11:08:56.468Z,40.98
2019-06-26T11:14:00.027Z,45.50
2019-06-26T11:19:04.097Z,43.60
2019-06-26T11:24:09.288Z,41.60
2019-06-26T11:29:12.951Z,44.93
2019-06-26T11:34:16.657Z,40.58
2019-06-26T11:39:20.320Z,39.55
2019-06-26T11:44:37.736Z,38.98
2019-06-26T11:49:41.435Z,36.93
2019-06-26T11:54:58.297Z,36.17
2019-06-26T11:59:50.415Z,36.63
2019-06-26T12:05:26.007Z,32.93
2019-06-26T12:10:21.413Z,32.03
2019-06-26T12:15:29.005Z,33.80
2019-06-26T12:20:34.163Z,31.37
2019-06-26T12:25:40.243Z,28.27
2019-06-26T12:30:48.072Z,25.02
2019-06-26T12:35:50.835Z,27.15
2019-06-26T12:40:54.420Z,19.92
2019-06-26T12:45:57.917Z,21.97
2019-06-26T12:51:01.574Z,15.00
2019-06-26T12:56:09.591Z,14.40
2019-06-26T13:01:13.180Z,12.43
2019-06-26T13:06:16.755Z,12.53
2019-06-26T13:11:20.292Z,12.35
2019-06-26T13:16:25.414Z,10.65
2019-06-26T13:21:28.954Z,11.10
2019-06-26T13:26:32.482Z,10.53
2019-06-26T13:31:36.304Z,9.60
2019-06-26T13:36:40.435Z,9.90
2019-06-26T13:41:43.963Z,11.25
2019-06-26T13:46:52.076Z,12.15
2019-06-26T13:51:56.006Z,12.37
2019-06-26T13:56:59.694Z,12.10
2019-06-26T14:02:04.774Z,13.00
2019-06-26T14:07:13.286Z,12.33
2019-06-26T14:12:19.145Z,13.28
2019-06-26T14:17:25.919Z,11.30
2019-06-26T14:22:32.644Z,10.35
2019-06-26T14:27:36.260Z,12.30
2019-06-26T14:32:39.878Z,10.72
2019-06-26T14:37:45.048Z,9.63
2019-06-26T14:42:48.741Z,8.55
2019-06-26T14:48:00.823Z,8.75
2019-06-26T14:53:06.156Z,7.65
2019-06-26T14:58:09.874Z,8.20
2019-06-26T15:03:18.855Z,6.25
2019-06-26T15:08:26.783Z,5.62
2019-06-26T15:13:30.515Z,6.15
2019-06-26T15:18:34.278Z,5.10
2019-06-26T15:23:39.599Z,4.87
2019-06-26T15:28:43.227Z,4.75
2019-06-26T15:33:47.887Z,5.45
2019-06-26T15:38:54.353Z,4.45
2019-06-26T15:43:58.935Z,3.70
2019-06-26T15:49:02.504Z,3.20
2019-06-26T15:54:06.095Z,3.72
2019-06-26T15:59:11.638Z,2.90
2019-06-26T16:04:16.204Z,2.72
2019-06-26T16:09:19.845Z,2.80
2019-06-26T16:14:23.495Z,3.20
2019-06-26T16:19:27.034Z,2.72
2019-06-26T16:24:30.606Z,3.12
2019-06-26T16:29:34.114Z,3.58
2019-06-26T16:34:37.716Z,2.77
2019-06-26T16:39:42.146Z,2.58
2019-06-26T16:44:45.768Z,2.40
2019-06-26T16:49:53.595Z,2.90
2019-06-26T16:54:58.120Z,2.62
2019-06-26T17:00:09.416Z,2.33
2019-06-26T17:05:11.676Z,2.20
2019-06-26T17:10:15.528Z,1.60
2019-06-26T17:15:19.233Z,1.60
2019-06-26T17:20:25.670Z,1.77
2019-06-26T17:25:29.250Z,2.50
2019-06-26T17:30:32.892Z,1.42
2019-06-26T17:35:36.437Z,1.65
2019-06-26T17:40:40.100Z,1.32
2019-06-26T17:45:44.577Z,1.40
2019-06-26T17:50:48.286Z,1.62
2019-06-26T17:55:51.863Z,1.90
2019-06-26T18:00:56.250Z,2.12
2019-06-26T18:06:05.993Z,1.57
2019-06-26T18:11:09.729Z,1.10
2019-06-26T18:16:13.492Z,0.90
2019-06-26T18:21:18.118Z,1.37
2019-06-26T18:26:46.215Z,1.52
2019-06-26T18:31:49.941Z,1.20
2019-06-26T18:36:56.311Z,1.40
2019-06-26T18:42:02.426Z,1.12
2019-06-26T18:47:12.834Z,1.32
2019-06-26T18:52:16.616Z,1.50
2019-06-26T18:57:33.379Z,1.10
2019-06-26T19:02:46.130Z,1.82
2019-06-26T19:07:52.406Z,1.50
2019-06-26T19:13:09.468Z,1.87
2019-06-26T19:18:13.137Z,1.80
2019-06-26T19:23:22.525Z,1.85
2019-06-26T19:28:26.218Z,2.00
2019-06-26T19:33:30.961Z,2.12
2019-06-26T19:38:59.682Z,2.00
2019-06-26T19:44:09.098Z,1.62
2019-06-26T19:49:14.590Z,2.08
2019-06-26T19:54:32.348Z,2.20
2019-06-26T19:59:56.253Z,2.20
2019-06-26T20:05:07.593Z,2.42
2019-06-26T20:10:17.062Z,2.30
2019-06-26T20:15:28.187Z,2.02
2019-06-26T20:20:31.980Z,2.33
2019-06-26T20:25:35.709Z,2.33
2019-06-26T20:30:39.462Z,2.00
2019-06-26T20:35:55.553Z,2.67
2019-06-26T20:41:11.790Z,2.40
2019-06-26T20:46:15.728Z,2.42
2019-06-26T20:51:21.055Z,2.02
2019-06-26T20:56:25.855Z,2.37
2019-06-26T21:01:29.740Z,2.20
2019-06-26T21:06:33.358Z,1.85
2019-06-26T21:11:37.030Z,2.33
2019-06-26T21:16:50.025Z,1.60
2019-06-26T21:21:53.693Z,2.20
2019-06-26T21:26:58.346Z,1.77
2019-06-26T21:32:02.052Z,2.40
2019-06-26T21:37:31.005Z,1.85
2019-06-26T21:42:39.907Z,2.37
2019-06-26T21:47:48.961Z,1.80
2019-06-26T21:52:53.734Z,2.27
2019-06-26T21:58:03.670Z,2.52
2019-06-26T22:03:09.716Z,2.60
2019-06-26T22:08:15.077Z,2.47
2019-06-26T22:13:23.510Z,2.50
2019-06-26T22:18:34.417Z,2.30
2019-06-26T22:23:39.858Z,3.05
2019-06-26T22:28:44.646Z,2.85
2019-06-26T22:33:50.300Z,2.35
2019-06-26T22:38:56.923Z,2.50
2019-06-26T22:44:10.485Z,2.30
2019-06-26T22:49:38.922Z,2.45
2019-06-26T22:54:43.649Z,2.30
2019-06-26T22:59:49.538Z,2.45
2019-06-26T23:04:53.466Z,2.58
2019-06-26T23:10:03.449Z,3.15
2019-06-26T23:15:11.199Z,2.73
2019-06-26T23:20:18.397Z,2.85
2019-06-26T23:25:23.120Z,3.02
2019-06-26T23:30:26.896Z,2.87
2019-06-26T23:35:33.586Z,2.90
2019-06-26T23:40:45.097Z,3.10
2019-06-26T23:45:53.750Z,3.30
2019-06-26T23:50:57.501Z,2.80
2019-06-26T23:56:05.511Z,3.27
